sensor_id;sensor_type;location;lat;lon;timestamp;P1;durP1;ratioP1;P2;durP2;ratioP2
70549;SDS011;58101;48.658;2.328;2023-11-18T00:01:19;16.52;;;7.05;;
70549;SDS011;58101;48.658;2.328;2023-11-18T00:03:45;18.63;;;8.23;;
70549;SDS011;58101;48.658;2.328;2023-11-18T00:06:11;18.33;;;7.70;;
70549;SDS011;58101;48.658;2.328;2023-11-18T00:08:37;19.17;;;8.00;;
70549;SDS011;58101;48.658;2.328;2023-11-18T00:11:03;18.90;;;7.47;;
70549;SDS011;58101;48.658;2.328;2023-11-18T00:13:29;17.42;;;7.20;;
70549;SDS011;58101;48.658;2.328;2023-11-18T00:15:54;18.42;;;7.75;;
70549;SDS011;58101;48.658;2.328;2023-11-18T00:18:21;17.70;;;7.13;;
70549;SDS011;58101;48.658;2.328;2023-11-18T00:20:47;18.17;;;7.47;;
70549;SDS011;58101;48.658;2.328;2023-11-18T00:23:13;15.25;;;6.90;;
70549;SDS011;58101;48.658;2.328;2023-11-18T00:25:38;15.38;;;6.90;;
70549;SDS011;58101;48.658;2.328;2023-11-18T00:28:05;16.45;;;6.40;;
70549;SDS011;58101;48.658;2.328;2023-11-18T00:30:32;12.73;;;6.22;;
70549;SDS011;58101;48.658;2.328;2023-11-18T00:32:58;15.98;;;6.20;;
70549;SDS011;58101;48.658;2.328;2023-11-18T00:35:24;18.48;;;6.38;;
70549;SDS011;58101;48.658;2.328;2023-11-18T00:37:50;16.92;;;6.53;;
70549;SDS011;58101;48.658;2.328;2023-11-18T00:40:15;15.82;;;6.18;;
70549;SDS011;58101;48.658;2.328;2023-11-18T00:42:43;15.95;;;6.80;;
70549;SDS011;58101;48.658;2.328;2023-11-18T00:47:37;15.55;;;5.75;;
70549;SDS011;58101;48.658;2.328;2023-11-18T00:50:03;13.88;;;6.15;;
70549;SDS011;58101;48.658;2.328;2023-11-18T00:52:33;15.30;;;5.70;;
70549;SDS011;58101;48.658;2.328;2023-11-18T00:54:59;14.85;;;6.13;;
70549;SDS011;58101;48.658;2.328;2023-11-18T00:57:25;19.30;;;6.13;;
70549;SDS011;58101;48.658;2.328;2023-11-18T00:59:51;20.95;;;6.63;;
70549;SDS011;58101;48.658;2.328;2023-11-18T01:02:16;15.85;;;6.00;;
70549;SDS011;58101;48.658;2.328;2023-11-18T01:04:43;18.10;;;6.15;;
70549;SDS011;58101;48.658;2.328;2023-11-18T01:07:11;13.90;;;5.85;;
70549;SDS011;58101;48.658;2.328;2023-11-18T01:09:37;13.82;;;5.78;;
70549;SDS011;58101;48.658;2.328;2023-11-18T01:12:04;13.98;;;5.53;;
70549;SDS011;58101;48.658;2.328;2023-11-18T01:14:31;15.82;;;5.97;;
70549;SDS011;58101;48.658;2.328;2023-11-18T01:16:56;16.30;;;6.40;;
70549;SDS011;58101;48.658;2.328;2023-11-18T01:19:22;16.02;;;6.20;;
70549;SDS011;58101;48.658;2.328;2023-11-18T01:21:48;14.55;;;5.40;;
70549;SDS011;58101;48.658;2.328;2023-11-18T01:24:14;15.80;;;5.20;;
70549;SDS011;58101;48.658;2.328;2023-11-18T01:26:41;12.57;;;4.63;;
70549;SDS011;58101;48.658;2.328;2023-11-18T01:29:07;13.38;;;4.57;;
70549;SDS011;58101;48.658;2.328;2023-11-18T01:31:32;16.05;;;4.57;;
70549;SDS011;58101;48.658;2.328;2023-11-18T01:33:58;15.15;;;4.40;;
70549;SDS011;58101;48.658;2.328;2023-11-18T01:36:24;11.70;;;4.80;;
70549;SDS011;58101;48.658;2.328;2023-11-18T01:38:50;11.18;;;4.72;;
70549;SDS011;58101;48.658;2.328;2023-11-18T01:41:16;15.05;;;4.60;;
70549;SDS011;58101;48.658;2.328;2023-11-18T01:43:45;11.25;;;4.25;;
70549;SDS011;58101;48.658;2.328;2023-11-18T01:46:11;12.30;;;3.95;;
70549;SDS011;58101;48.658;2.328;2023-11-18T01:48:38;11.35;;;4.00;;
70549;SDS011;58101;48.658;2.328;2023-11-18T01:53:32;13.50;;;4.50;;
70549;SDS011;58101;48.658;2.328;2023-11-18T01:56:00;9.20;;;3.45;;
70549;SDS011;58101;48.658;2.328;2023-11-18T01:58:27;12.10;;;3.70;;
70549;SDS011;58101;48.658;2.328;2023-11-18T02:00:55;12.38;;;3.58;;
70549;SDS011;58101;48.658;2.328;2023-11-18T02:03:22;13.35;;;3.47;;
70549;SDS011;58101;48.658;2.328;2023-11-18T02:05:47;11.45;;;3.90;;
70549;SDS011;58101;48.658;2.328;2023-11-18T02:08:13;13.77;;;3.88;;
70549;SDS011;58101;48.658;2.328;2023-11-18T02:11:42;15.02;;;3.65;;
70549;SDS011;58101;48.658;2.328;2023-11-18T02:13:40;8.98;;;3.28;;
70549;SDS011;58101;48.658;2.328;2023-11-18T02:16:11;11.18;;;3.55;;
70549;SDS011;58101;48.658;2.328;2023-11-18T02:18:38;13.80;;;3.38;;
70549;SDS011;58101;48.658;2.328;2023-11-18T02:21:06;11.93;;;3.70;;
70549;SDS011;58101;48.658;2.328;2023-11-18T02:23:34;14.32;;;3.65;;
70549;SDS011;58101;48.658;2.328;2023-11-18T02:26:00;13.10;;;4.03;;
70549;SDS011;58101;48.658;2.328;2023-11-18T02:28:26;9.52;;;3.58;;
70549;SDS011;58101;48.658;2.328;2023-11-18T02:30:54;11.63;;;3.50;;
70549;SDS011;58101;48.658;2.328;2023-11-18T02:33:32;13.68;;;3.70;;
70549;SDS011;58101;48.658;2.328;2023-11-18T02:36:15;12.15;;;4.40;;
70549;SDS011;58101;48.658;2.328;2023-11-18T02:39:04;13.30;;;4.07;;
70549;SDS011;58101;48.658;2.328;2023-11-18T02:41:35;14.45;;;4.22;;
70549;SDS011;58101;48.658;2.328;2023-11-18T02:44:04;14.98;;;4.10;;
70549;SDS011;58101;48.658;2.328;2023-11-18T02:46:35;11.25;;;3.63;;
70549;SDS011;58101;48.658;2.328;2023-11-18T02:49:02;11.70;;;3.78;;
70549;SDS011;58101;48.658;2.328;2023-11-18T02:51:29;11.05;;;3.45;;
70549;SDS011;58101;48.658;2.328;2023-11-18T02:54:04;12.57;;;3.40;;
70549;SDS011;58101;48.658;2.328;2023-11-18T02:56:35;12.18;;;3.53;;
70549;SDS011;58101;48.658;2.328;2023-11-18T02:59:01;11.10;;;3.60;;
70549;SDS011;58101;48.658;2.328;2023-11-18T03:01:30;15.18;;;3.70;;
70549;SDS011;58101;48.658;2.328;2023-11-18T03:03:56;13.70;;;3.97;;
70549;SDS011;58101;48.658;2.328;2023-11-18T03:06:22;15.93;;;3.45;;
70549;SDS011;58101;48.658;2.328;2023-11-18T03:08:48;13.38;;;3.33;;
70549;SDS011;58101;48.658;2.328;2023-11-18T03:11:13;14.02;;;3.72;;
70549;SDS011;58101;48.658;2.328;2023-11-18T03:13:39;11.70;;;3.40;;
70549;SDS011;58101;48.658;2.328;2023-11-18T03:16:08;10.27;;;3.35;;
70549;SDS011;58101;48.658;2.328;2023-11-18T03:18:41;11.95;;;3.83;;
70549;SDS011;58101;48.658;2.328;2023-11-18T03:21:13;12.77;;;4.22;;
70549;SDS011;58101;48.658;2.328;2023-11-18T03:23:40;11.50;;;3.83;;
70549;SDS011;58101;48.658;2.328;2023-11-18T03:26:09;12.55;;;3.72;;
70549;SDS011;58101;48.658;2.328;2023-11-18T03:28:35;9.75;;;3.58;;
70549;SDS011;58101;48.658;2.328;2023-11-18T03:31:04;14.95;;;3.72;;
70549;SDS011;58101;48.658;2.328;2023-11-18T03:33:30;11.70;;;4.53;;
70549;SDS011;58101;48.658;2.328;2023-11-18T03:35:57;15.55;;;3.80;;
70549;SDS011;58101;48.658;2.328;2023-11-18T03:38:23;13.88;;;4.20;;
70549;SDS011;58101;48.658;2.328;2023-11-18T03:40:49;14.15;;;3.83;;
70549;SDS011;58101;48.658;2.328;2023-11-18T03:43:15;14.23;;;3.70;;
70549;SDS011;58101;48.658;2.328;2023-11-18T03:45:40;10.38;;;4.00;;
70549;SDS011;58101;48.658;2.328;2023-11-18T03:48:07;13.82;;;3.90;;
70549;SDS011;58101;48.658;2.328;2023-11-18T03:50:33;11.93;;;3.90;;
70549;SDS011;58101;48.658;2.328;2023-11-18T03:52:59;15.05;;;4.43;;
70549;SDS011;58101;48.658;2.328;2023-11-18T03:55:24;14.48;;;4.30;;
70549;SDS011;58101;48.658;2.328;2023-11-18T03:57:54;11.27;;;4.10;;
70549;SDS011;58101;48.658;2.328;2023-11-18T04:00:20;11.52;;;3.92;;
70549;SDS011;58101;48.658;2.328;2023-11-18T04:02:46;12.25;;;4.00;;
70549;SDS011;58101;48.658;2.328;2023-11-18T04:05:13;13.27;;;4.25;;
70549;SDS011;58101;48.658;2.328;2023-11-18T04:07:38;12.90;;;4.50;;
70549;SDS011;58101;48.658;2.328;2023-11-18T04:10:07;9.18;;;4.03;;
70549;SDS011;58101;48.658;2.328;2023-11-18T04:12:35;11.75;;;4.28;;
70549;SDS011;58101;48.658;2.328;2023-11-18T04:15:02;12.45;;;3.85;;
70549;SDS011;58101;48.658;2.328;2023-11-18T04:17:29;12.88;;;3.80;;
70549;SDS011;58101;48.658;2.328;2023-11-18T04:19:56;15.07;;;3.95;;
70549;SDS011;58101;48.658;2.328;2023-11-18T04:22:22;12.95;;;4.22;;
70549;SDS011;58101;48.658;2.328;2023-11-18T04:24:48;10.60;;;3.85;;
70549;SDS011;58101;48.658;2.328;2023-11-18T04:27:13;16.15;;;4.25;;
70549;SDS011;58101;48.658;2.328;2023-11-18T04:29:39;10.18;;;3.70;;
70549;SDS011;58101;48.658;2.328;2023-11-18T04:32:05;14.48;;;3.78;;
70549;SDS011;58101;48.658;2.328;2023-11-18T04:34:37;12.40;;;3.53;;
70549;SDS011;58101;48.658;2.328;2023-11-18T04:37:03;13.40;;;3.88;;
70549;SDS011;58101;48.658;2.328;2023-11-18T04:39:31;10.05;;;3.08;;
70549;SDS011;58101;48.658;2.328;2023-11-18T04:41:57;13.18;;;3.70;;
70549;SDS011;58101;48.658;2.328;2023-11-18T04:44:23;16.42;;;3.95;;
70549;SDS011;58101;48.658;2.328;2023-11-18T04:46:48;9.98;;;3.20;;
70549;SDS011;58101;48.658;2.328;2023-11-18T04:49:15;11.40;;;3.22;;
70549;SDS011;58101;48.658;2.328;2023-11-18T04:51:40;9.50;;;3.30;;
70549;SDS011;58101;48.658;2.328;2023-11-18T04:54:06;9.25;;;3.05;;
70549;SDS011;58101;48.658;2.328;2023-11-18T04:56:33;11.25;;;3.13;;
70549;SDS011;58101;48.658;2.328;2023-11-18T05:01:09;10.27;;;2.90;;
70549;SDS011;58101;48.658;2.328;2023-11-18T05:03:38;12.68;;;3.20;;
70549;SDS011;58101;48.658;2.328;2023-11-18T05:06:03;12.73;;;3.10;;
70549;SDS011;58101;48.658;2.328;2023-11-18T05:08:29;10.43;;;2.95;;
70549;SDS011;58101;48.658;2.328;2023-11-18T05:10:55;13.13;;;3.10;;
70549;SDS011;58101;48.658;2.328;2023-11-18T05:13:22;13.57;;;2.75;;
70549;SDS011;58101;48.658;2.328;2023-11-18T05:15:48;11.00;;;3.00;;
70549;SDS011;58101;48.658;2.328;2023-11-18T05:18:15;10.35;;;3.08;;
70549;SDS011;58101;48.658;2.328;2023-11-18T05:20:41;11.25;;;2.90;;
70549;SDS011;58101;48.658;2.328;2023-11-18T05:23:07;9.77;;;2.60;;
70549;SDS011;58101;48.658;2.328;2023-11-18T05:25:35;10.45;;;2.60;;
70549;SDS011;58101;48.658;2.328;2023-11-18T05:28:01;9.68;;;2.50;;
70549;SDS011;58101;48.658;2.328;2023-11-18T05:30:28;9.95;;;2.67;;
70549;SDS011;58101;48.658;2.328;2023-11-18T05:32:55;8.65;;;2.90;;
70549;SDS011;58101;48.658;2.328;2023-11-18T05:35:23;11.88;;;2.65;;
70549;SDS011;58101;48.658;2.328;2023-11-18T05:37:53;8.93;;;2.70;;
70549;SDS011;58101;48.658;2.328;2023-11-18T05:40:19;9.80;;;2.63;;
70549;SDS011;58101;48.658;2.328;2023-11-18T05:42:45;7.00;;;2.47;;
70549;SDS011;58101;48.658;2.328;2023-11-18T05:45:13;10.75;;;2.88;;
70549;SDS011;58101;48.658;2.328;2023-11-18T05:47:53;9.60;;;2.83;;
70549;SDS011;58101;48.658;2.328;2023-11-18T05:50:20;8.98;;;2.75;;
70549;SDS011;58101;48.658;2.328;2023-11-18T05:52:45;13.75;;;2.90;;
70549;SDS011;58101;48.658;2.328;2023-11-18T05:55:11;12.43;;;3.28;;
70549;SDS011;58101;48.658;2.328;2023-11-18T05:57:37;10.57;;;2.60;;
70549;SDS011;58101;48.658;2.328;2023-11-18T06:00:02;10.65;;;2.90;;
70549;SDS011;58101;48.658;2.328;2023-11-18T06:02:30;9.68;;;2.80;;
70549;SDS011;58101;48.658;2.328;2023-11-18T06:04:56;7.97;;;2.22;;
70549;SDS011;58101;48.658;2.328;2023-11-18T06:07:22;9.45;;;2.83;;
70549;SDS011;58101;48.658;2.328;2023-11-18T06:09:48;8.77;;;2.75;;
70549;SDS011;58101;48.658;2.328;2023-11-18T06:12:13;7.47;;;2.50;;
70549;SDS011;58101;48.658;2.328;2023-11-18T06:14:42;8.13;;;2.05;;
70549;SDS011;58101;48.658;2.328;2023-11-18T06:19:38;8.73;;;1.95;;
70549;SDS011;58101;48.658;2.328;2023-11-18T06:22:04;7.78;;;2.10;;
70549;SDS011;58101;48.658;2.328;2023-11-18T06:24:30;11.48;;;2.45;;
70549;SDS011;58101;48.658;2.328;2023-11-18T06:26:56;11.18;;;2.38;;
70549;SDS011;58101;48.658;2.328;2023-11-18T06:29:22;11.10;;;2.58;;
70549;SDS011;58101;48.658;2.328;2023-11-18T06:31:48;8.43;;;2.00;;
70549;SDS011;58101;48.658;2.328;2023-11-18T06:34:14;10.63;;;2.50;;
70549;SDS011;58101;48.658;2.328;2023-11-18T06:36:39;9.68;;;2.03;;
70549;SDS011;58101;48.658;2.328;2023-11-18T06:39:05;9.52;;;2.13;;
70549;SDS011;58101;48.658;2.328;2023-11-18T06:41:32;8.60;;;2.20;;
70549;SDS011;58101;48.658;2.328;2023-11-18T06:44:03;8.13;;;2.22;;
70549;SDS011;58101;48.658;2.328;2023-11-18T06:46:37;12.38;;;2.65;;
70549;SDS011;58101;48.658;2.328;2023-11-18T06:49:04;6.55;;;2.22;;
70549;SDS011;58101;48.658;2.328;2023-11-18T06:51:32;8.85;;;2.28;;
70549;SDS011;58101;48.658;2.328;2023-11-18T06:54:03;10.70;;;2.45;;
70549;SDS011;58101;48.658;2.328;2023-11-18T06:56:34;8.73;;;2.53;;
70549;SDS011;58101;48.658;2.328;2023-11-18T06:59:06;8.50;;;2.03;;
70549;SDS011;58101;48.658;2.328;2023-11-18T07:01:32;8.38;;;2.00;;
70549;SDS011;58101;48.658;2.328;2023-11-18T07:03:58;8.68;;;2.47;;
70549;SDS011;58101;48.658;2.328;2023-11-18T07:06:24;8.77;;;2.20;;
70549;SDS011;58101;48.658;2.328;2023-11-18T07:08:51;7.28;;;2.00;;
70549;SDS011;58101;48.658;2.328;2023-11-18T07:11:18;7.25;;;1.90;;
70549;SDS011;58101;48.658;2.328;2023-11-18T07:13:47;8.65;;;2.10;;
70549;SDS011;58101;48.658;2.328;2023-11-18T07:16:14;8.52;;;2.25;;
70549;SDS011;58101;48.658;2.328;2023-11-18T07:18:40;8.43;;;2.30;;
70549;SDS011;58101;48.658;2.328;2023-11-18T07:21:09;7.43;;;1.95;;
70549;SDS011;58101;48.658;2.328;2023-11-18T07:23:35;7.97;;;2.03;;
70549;SDS011;58101;48.658;2.328;2023-11-18T07:26:01;8.38;;;2.00;;
70549;SDS011;58101;48.658;2.328;2023-11-18T07:28:28;7.47;;;1.92;;
70549;SDS011;58101;48.658;2.328;2023-11-18T07:30:54;8.60;;;1.90;;
70549;SDS011;58101;48.658;2.328;2023-11-18T07:33:20;6.75;;;1.95;;
70549;SDS011;58101;48.658;2.328;2023-11-18T07:35:46;8.20;;;1.90;;
70549;SDS011;58101;48.658;2.328;2023-11-18T07:40:39;8.95;;;2.13;;
70549;SDS011;58101;48.658;2.328;2023-11-18T07:43:11;7.30;;;1.70;;
70549;SDS011;58101;48.658;2.328;2023-11-18T07:45:37;7.43;;;1.98;;
70549;SDS011;58101;48.658;2.328;2023-11-18T07:48:04;8.07;;;1.90;;
70549;SDS011;58101;48.658;2.328;2023-11-18T07:50:35;9.25;;;2.35;;
70549;SDS011;58101;48.658;2.328;2023-11-18T07:53:01;8.88;;;2.20;;
70549;SDS011;58101;48.658;2.328;2023-11-18T07:55:27;9.43;;;2.28;;
70549;SDS011;58101;48.658;2.328;2023-11-18T07:57:53;7.30;;;2.05;;
70549;SDS011;58101;48.658;2.328;2023-11-18T08:00:19;9.65;;;3.50;;
70549;SDS011;58101;48.658;2.328;2023-11-18T08:02:46;9.70;;;3.03;;
70549;SDS011;58101;48.658;2.328;2023-11-18T08:05:11;10.48;;;2.70;;
70549;SDS011;58101;48.658;2.328;2023-11-18T08:07:43;9.20;;;2.38;;
70549;SDS011;58101;48.658;2.328;2023-11-18T08:10:10;7.90;;;2.63;;
70549;SDS011;58101;48.658;2.328;2023-11-18T08:12:38;7.60;;;2.38;;
70549;SDS011;58101;48.658;2.328;2023-11-18T08:15:06;10.10;;;2.63;;
70549;SDS011;58101;48.658;2.328;2023-11-18T08:17:34;8.30;;;2.60;;
70549;SDS011;58101;48.658;2.328;2023-11-18T08:20:00;9.63;;;2.75;;
70549;SDS011;58101;48.658;2.328;2023-11-18T08:22:25;10.13;;;2.38;;
70549;SDS011;58101;48.658;2.328;2023-11-18T08:24:51;8.85;;;2.42;;
70549;SDS011;58101;48.658;2.328;2023-11-18T08:27:17;7.32;;;2.35;;
70549;SDS011;58101;48.658;2.328;2023-11-18T08:29:42;8.73;;;2.60;;
70549;SDS011;58101;48.658;2.328;2023-11-18T08:32:08;7.95;;;2.47;;
70549;SDS011;58101;48.658;2.328;2023-11-18T08:34:37;6.95;;;2.40;;
70549;SDS011;58101;48.658;2.328;2023-11-18T08:37:06;10.40;;;2.33;;
70549;SDS011;58101;48.658;2.328;2023-11-18T08:39:32;8.43;;;2.67;;
70549;SDS011;58101;48.658;2.328;2023-11-18T08:41:58;9.32;;;2.78;;
70549;SDS011;58101;48.658;2.328;2023-11-18T08:44:24;7.15;;;2.20;;
70549;SDS011;58101;48.658;2.328;2023-11-18T08:46:50;10.68;;;3.10;;
70549;SDS011;58101;48.658;2.328;2023-11-18T08:49:17;10.60;;;3.30;;
70549;SDS011;58101;48.658;2.328;2023-11-18T08:51:50;7.78;;;2.40;;
70549;SDS011;58101;48.658;2.328;2023-11-18T08:54:21;6.95;;;2.25;;
70549;SDS011;58101;48.658;2.328;2023-11-18T08:56:50;8.40;;;2.55;;
70549;SDS011;58101;48.658;2.328;2023-11-18T08:59:22;6.38;;;2.30;;
70549;SDS011;58101;48.658;2.328;2023-11-18T09:01:52;7.35;;;2.25;;
70549;SDS011;58101;48.658;2.328;2023-11-18T09:04:24;6.53;;;2.20;;
70549;SDS011;58101;48.658;2.328;2023-11-18T09:06:50;7.07;;;2.30;;
70549;SDS011;58101;48.658;2.328;2023-11-18T09:09:19;7.85;;;1.90;;
70549;SDS011;58101;48.658;2.328;2023-11-18T09:11:54;6.60;;;2.15;;
70549;SDS011;58101;48.658;2.328;2023-11-18T09:14:24;7.03;;;2.42;;
70549;SDS011;58101;48.658;2.328;2023-11-18T09:16:51;8.00;;;2.53;;
70549;SDS011;58101;48.658;2.328;2023-11-18T09:19:20;10.35;;;2.65;;
70549;SDS011;58101;48.658;2.328;2023-11-18T09:21:46;9.02;;;2.78;;
70549;SDS011;58101;48.658;2.328;2023-11-18T09:24:13;8.20;;;2.50;;
70549;SDS011;58101;48.658;2.328;2023-11-18T09:26:43;7.88;;;2.45;;
70549;SDS011;58101;48.658;2.328;2023-11-18T09:29:12;8.52;;;2.38;;
70549;SDS011;58101;48.658;2.328;2023-11-18T09:31:46;11.07;;;3.92;;
70549;SDS011;58101;48.658;2.328;2023-11-18T09:34:14;10.82;;;2.80;;
70549;SDS011;58101;48.658;2.328;2023-11-18T09:36:42;10.23;;;3.22;;
70549;SDS011;58101;48.658;2.328;2023-11-18T09:39:09;15.00;;;5.35;;
70549;SDS011;58101;48.658;2.328;2023-11-18T09:41:49;7.22;;;2.38;;
70549;SDS011;58101;48.658;2.328;2023-11-18T09:44:16;7.82;;;2.70;;
70549;SDS011;58101;48.658;2.328;2023-11-18T09:46:43;8.82;;;2.53;;
70549;SDS011;58101;48.658;2.328;2023-11-18T09:49:22;7.40;;;2.22;;
70549;SDS011;58101;48.658;2.328;2023-11-18T09:51:58;7.43;;;2.67;;
70549;SDS011;58101;48.658;2.328;2023-11-18T09:57:27;6.68;;;2.65;;
70549;SDS011;58101;48.658;2.328;2023-11-18T10:00:29;9.38;;;3.70;;
70549;SDS011;58101;48.658;2.328;2023-11-18T10:02:57;8.05;;;2.80;;
70549;SDS011;58101;48.658;2.328;2023-11-18T10:05:26;11.02;;;4.60;;
70549;SDS011;58101;48.658;2.328;2023-11-18T10:07:52;7.95;;;3.30;;
70549;SDS011;58101;48.658;2.328;2023-11-18T10:10:18;8.98;;;3.60;;
70549;SDS011;58101;48.658;2.328;2023-11-18T10:12:52;8.45;;;3.03;;
70549;SDS011;58101;48.658;2.328;2023-11-18T10:15:21;7.95;;;2.75;;
70549;SDS011;58101;48.658;2.328;2023-11-18T10:17:51;8.77;;;2.67;;
70549;SDS011;58101;48.658;2.328;2023-11-18T10:20:22;8.52;;;2.88;;
70549;SDS011;58101;48.658;2.328;2023-11-18T10:23:09;8.25;;;3.10;;
70549;SDS011;58101;48.658;2.328;2023-11-18T10:25:45;8.77;;;3.72;;
70549;SDS011;58101;48.658;2.328;2023-11-18T10:31:11;8.30;;;2.10;;
70549;SDS011;58101;48.658;2.328;2023-11-18T10:33:44;6.82;;;2.35;;
70549;SDS011;58101;48.658;2.328;2023-11-18T10:36:21;9.25;;;2.80;;
70549;SDS011;58101;48.658;2.328;2023-11-18T10:38:48;7.65;;;2.70;;
70549;SDS011;58101;48.658;2.328;2023-11-18T10:41:20;7.57;;;2.92;;
70549;SDS011;58101;48.658;2.328;2023-11-18T10:43:46;12.90;;;3.85;;
70549;SDS011;58101;48.658;2.328;2023-11-18T10:46:15;9.50;;;3.70;;
70549;SDS011;58101;48.658;2.328;2023-11-18T10:48:48;8.85;;;3.05;;
70549;SDS011;58101;48.658;2.328;2023-11-18T10:51:15;9.93;;;3.10;;
70549;SDS011;58101;48.658;2.328;2023-11-18T10:53:44;10.38;;;3.00;;
70549;SDS011;58101;48.658;2.328;2023-11-18T10:56:27;11.55;;;3.90;;
70549;SDS011;58101;48.658;2.328;2023-11-18T11:01:34;8.23;;;2.92;;
70549;SDS011;58101;48.658;2.328;2023-11-18T11:04:18;8.07;;;2.30;;
70549;SDS011;58101;48.658;2.328;2023-11-18T11:06:47;8.85;;;3.78;;
70549;SDS011;58101;48.658;2.328;2023-11-18T11:09:22;8.27;;;2.70;;
70549;SDS011;58101;48.658;2.328;2023-11-18T11:12:02;6.85;;;2.20;;
70549;SDS011;58101;48.658;2.328;2023-11-18T11:14:41;8.80;;;2.72;;
70549;SDS011;58101;48.658;2.328;2023-11-18T11:17:16;7.95;;;2.30;;
70549;SDS011;58101;48.658;2.328;2023-11-18T11:28:37;6.15;;;2.25;;
70549;SDS011;58101;48.658;2.328;2023-11-18T11:31:21;7.38;;;2.15;;
70549;SDS011;58101;48.658;2.328;2023-11-18T11:36:25;8.70;;;2.10;;
70549;SDS011;58101;48.658;2.328;2023-11-18T11:39:01;7.57;;;2.38;;
70549;SDS011;58101;48.658;2.328;2023-11-18T11:41:28;7.50;;;2.30;;
70549;SDS011;58101;48.658;2.328;2023-11-18T11:43:59;7.45;;;2.40;;
70549;SDS011;58101;48.658;2.328;2023-11-18T11:46:25;6.72;;;2.20;;
70549;SDS011;58101;48.658;2.328;2023-11-18T11:48:59;9.43;;;2.58;;
70549;SDS011;58101;48.658;2.328;2023-11-18T11:51:30;8.55;;;2.70;;
70549;SDS011;58101;48.658;2.328;2023-11-18T11:54:11;8.07;;;2.63;;
70549;SDS011;58101;48.658;2.328;2023-11-18T11:59:17;7.05;;;2.40;;
70549;SDS011;58101;48.658;2.328;2023-11-18T12:02:02;7.18;;;2.65;;
70549;SDS011;58101;48.658;2.328;2023-11-18T12:04:32;8.43;;;2.67;;
70549;SDS011;58101;48.658;2.328;2023-11-18T12:07:03;10.10;;;3.40;;
70549;SDS011;58101;48.658;2.328;2023-11-18T12:09:34;11.05;;;3.28;;
70549;SDS011;58101;48.658;2.328;2023-11-18T12:12:04;10.55;;;3.13;;
70549;SDS011;58101;48.658;2.328;2023-11-18T12:17:17;7.97;;;3.00;;
70549;SDS011;58101;48.658;2.328;2023-11-18T12:19:53;8.02;;;3.08;;
70549;SDS011;58101;48.658;2.328;2023-11-18T12:22:32;8.88;;;3.03;;
70549;SDS011;58101;48.658;2.328;2023-11-18T12:25:39;8.98;;;2.80;;
70549;SDS011;58101;48.658;2.328;2023-11-18T12:28:14;9.65;;;3.08;;
70549;SDS011;58101;48.658;2.328;2023-11-18T12:30:42;10.45;;;3.63;;
70549;SDS011;58101;48.658;2.328;2023-11-18T12:33:18;9.88;;;3.15;;
70549;SDS011;58101;48.658;2.328;2023-11-18T12:46:55;8.35;;;2.63;;
70549;SDS011;58101;48.658;2.328;2023-11-18T12:49:40;8.25;;;2.70;;
70549;SDS011;58101;48.658;2.328;2023-11-18T12:52:07;11.52;;;4.28;;
70549;SDS011;58101;48.658;2.328;2023-11-18T12:57:02;6.82;;;2.67;;
70549;SDS011;58101;48.658;2.328;2023-11-18T12:59:31;8.90;;;2.60;;
70549;SDS011;58101;48.658;2.328;2023-11-18T13:01:58;11.55;;;3.22;;
70549;SDS011;58101;48.658;2.328;2023-11-18T13:04:27;10.70;;;3.80;;
70549;SDS011;58101;48.658;2.328;2023-11-18T13:06:53;10.68;;;3.35;;
70549;SDS011;58101;48.658;2.328;2023-11-18T13:09:19;7.40;;;2.78;;
70549;SDS011;58101;48.658;2.328;2023-11-18T13:14:26;9.18;;;3.33;;
70549;SDS011;58101;48.658;2.328;2023-11-18T13:16:53;9.80;;;3.15;;
70549;SDS011;58101;48.658;2.328;2023-11-18T13:19:23;10.98;;;3.58;;
70549;SDS011;58101;48.658;2.328;2023-11-18T13:21:56;9.48;;;2.97;;
70549;SDS011;58101;48.658;2.328;2023-11-18T13:24:26;7.38;;;2.63;;
70549;SDS011;58101;48.658;2.328;2023-11-18T13:29:22;8.40;;;3.00;;
70549;SDS011;58101;48.658;2.328;2023-11-18T13:31:49;8.68;;;2.58;;
70549;SDS011;58101;48.658;2.328;2023-11-18T13:34:16;8.18;;;2.40;;
70549;SDS011;58101;48.658;2.328;2023-11-18T13:36:48;9.02;;;3.15;;
70549;SDS011;58101;48.658;2.328;2023-11-18T13:39:18;9.25;;;2.83;;
70549;SDS011;58101;48.658;2.328;2023-11-18T13:41:45;10.60;;;3.30;;
70549;SDS011;58101;48.658;2.328;2023-11-18T13:46:59;10.13;;;2.90;;
70549;SDS011;58101;48.658;2.328;2023-11-18T13:49:30;9.63;;;3.22;;
70549;SDS011;58101;48.658;2.328;2023-11-18T13:51:56;8.98;;;2.97;;
70549;SDS011;58101;48.658;2.328;2023-11-18T13:54:23;7.82;;;2.40;;
70549;SDS011;58101;48.658;2.328;2023-11-18T13:56:50;8.32;;;2.50;;
70549;SDS011;58101;48.658;2.328;2023-11-18T13:59:17;7.65;;;2.45;;
70549;SDS011;58101;48.658;2.328;2023-11-18T14:04:11;7.65;;;2.30;;
70549;SDS011;58101;48.658;2.328;2023-11-18T14:06:36;8.75;;;2.10;;
70549;SDS011;58101;48.658;2.328;2023-11-18T14:09:04;8.70;;;2.60;;
70549;SDS011;58101;48.658;2.328;2023-11-18T14:11:30;7.50;;;2.75;;
70549;SDS011;58101;48.658;2.328;2023-11-18T14:13:56;11.20;;;2.60;;
70549;SDS011;58101;48.658;2.328;2023-11-18T14:16:23;8.68;;;3.20;;
70549;SDS011;58101;48.658;2.328;2023-11-18T14:18:51;9.27;;;3.45;;
70549;SDS011;58101;48.658;2.328;2023-11-18T14:21:16;15.32;;;6.78;;
70549;SDS011;58101;48.658;2.328;2023-11-18T14:23:42;12.48;;;3.63;;
70549;SDS011;58101;48.658;2.328;2023-11-18T14:26:08;14.23;;;6.05;;
70549;SDS011;58101;48.658;2.328;2023-11-18T14:28:34;16.65;;;5.07;;
70549;SDS011;58101;48.658;2.328;2023-11-18T14:31:00;12.77;;;3.95;;
70549;SDS011;58101;48.658;2.328;2023-11-18T14:33:29;12.73;;;5.13;;
70549;SDS011;58101;48.658;2.328;2023-11-18T14:35:58;11.85;;;5.18;;
70549;SDS011;58101;48.658;2.328;2023-11-18T14:38:26;10.23;;;4.38;;
70549;SDS011;58101;48.658;2.328;2023-11-18T14:40:52;8.18;;;2.75;;
70549;SDS011;58101;48.658;2.328;2023-11-18T14:43:18;24.48;;;8.85;;
70549;SDS011;58101;48.658;2.328;2023-11-18T14:45:44;16.90;;;6.72;;
70549;SDS011;58101;48.658;2.328;2023-11-18T14:48:10;18.77;;;8.32;;
70549;SDS011;58101;48.658;2.328;2023-11-18T14:50:36;12.80;;;5.22;;
70549;SDS011;58101;48.658;2.328;2023-11-18T14:57:54;10.50;;;3.53;;
70549;SDS011;58101;48.658;2.328;2023-11-18T15:00:20;13.43;;;5.53;;
70549;SDS011;58101;48.658;2.328;2023-11-18T15:02:53;16.38;;;6.75;;
70549;SDS011;58101;48.658;2.328;2023-11-18T15:05:20;18.85;;;7.80;;
70549;SDS011;58101;48.658;2.328;2023-11-18T15:07:47;14.70;;;6.25;;
70549;SDS011;58101;48.658;2.328;2023-11-18T15:10:14;19.80;;;8.15;;
70549;SDS011;58101;48.658;2.328;2023-11-18T15:15:13;18.30;;;7.43;;
70549;SDS011;58101;48.658;2.328;2023-11-18T15:17:45;12.20;;;4.90;;
70549;SDS011;58101;48.658;2.328;2023-11-18T15:20:13;14.55;;;5.97;;
70549;SDS011;58101;48.658;2.328;2023-11-18T15:22:40;20.13;;;9.00;;
70549;SDS011;58101;48.658;2.328;2023-11-18T15:25:07;13.98;;;5.30;;
70549;SDS011;58101;48.658;2.328;2023-11-18T15:27:37;11.85;;;4.13;;
70549;SDS011;58101;48.658;2.328;2023-11-18T15:30:08;16.75;;;5.70;;
70549;SDS011;58101;48.658;2.328;2023-11-18T15:32:37;19.98;;;6.55;;
70549;SDS011;58101;48.658;2.328;2023-11-18T15:35:04;18.75;;;8.20;;
70549;SDS011;58101;48.658;2.328;2023-11-18T15:37:33;14.55;;;6.57;;
70549;SDS011;58101;48.658;2.328;2023-11-18T15:40:03;13.10;;;5.90;;
70549;SDS011;58101;48.658;2.328;2023-11-18T15:42:40;17.58;;;7.43;;
70549;SDS011;58101;48.658;2.328;2023-11-18T15:45:13;16.35;;;5.07;;
70549;SDS011;58101;48.658;2.328;2023-11-18T15:47:45;16.63;;;6.38;;
70549;SDS011;58101;48.658;2.328;2023-11-18T15:50:13;19.73;;;7.68;;
70549;SDS011;58101;48.658;2.328;2023-11-18T15:52:49;22.92;;;9.43;;
70549;SDS011;58101;48.658;2.328;2023-11-18T15:55:18;16.50;;;7.00;;
70549;SDS011;58101;48.658;2.328;2023-11-18T15:57:46;15.18;;;6.93;;